Time;durP1;ratioP1;P1;durP2;ratioP2;P2;SDS_P1;SDS_P2;PMS_P1;PMS_P2;Temp;Humidity;BMP_temperature;BMP_pressure;BME280_temperature;BME280_humidity;BME280_pressure;Samples;Min_cycle;Max_cycle;Signal;HPM_P1;HPM_P2
2022/03/25 00:00:25;;;;;;;117.20;72.78;;;;;;;;;;5056940;28;20024;-76
2022/03/25 00:02:51;;;;;;;83.60;52.72;;;;;;;;;;5070821;28;20498;-77
2022/03/25 00:05:17;;;;;;;104.00;57.17;;;;;;;;;;5070707;28;20036;-75
2022/03/25 00:07:43;;;;;;;94.07;56.00;;;;;;;;;;5070231;28;20450;-75
2022/03/25 00:10:10;;;;;;;104.88;65.70;;;;;;;;;;5071982;28;20386;-75
2022/03/25 00:12:36;;;;;;;96.25;61.00;;;;;;;;;;5070499;28;20178;-76
2022/03/25 00:15:02;;;;;;;100.47;57.90;;;;;;;;;;5071322;28;21357;-75
2022/03/25 00:17:28;;;;;;;65.45;43.70;;;;;;;;;;5071721;28;20016;-76
2022/03/25 00:19:54;;;;;;;73.15;42.53;;;;;;;;;;5071661;28;20029;-76
2022/03/25 00:22:20;;;;;;;60.75;37.55;;;;;;;;;;5070614;28;20535;-76
2022/03/25 00:24:46;;;;;;;61.50;37.50;;;;;;;;;;5071794;28;20021;-78
2022/03/25 00:27:12;;;;;;;50.58;24.40;;;;;;;;;;5070621;28;20120;-76
2022/03/25 00:29:38;;;;;;;67.30;37.97;;;;;;;;;;5071605;28;20029;-77
2022/03/25 00:32:05;;;;;;;51.25;31.40;;;;;;;;;;5069994;28;20063;-76
2022/03/25 00:34:31;;;;;;;64.65;35.17;;;;;;;;;;5071781;28;20017;-76
2022/03/25 00:36:57;;;;;;;71.28;42.50;;;;;;;;;;5071888;28;20059;-75
2022/03/25 00:39:23;;;;;;;69.30;45.47;;;;;;;;;;5070040;28;20020;-76
2022/03/25 00:41:50;;;;;;;69.45;44.10;;;;;;;;;;5070223;28;20021;-76
2022/03/25 00:44:18;;;;;;;45.30;29.00;;;;;;;;;;5071734;28;20491;-75
2022/03/25 00:46:44;;;;;;;78.43;47.40;;;;;;;;;;5071085;28;20036;-76
2022/03/25 00:49:11;;;;;;;43.00;27.13;;;;;;;;;;5071591;28;20021;-76
2022/03/25 00:51:37;;;;;;;63.28;34.97;;;;;;;;;;5070045;28;20057;-76
2022/03/25 00:54:04;;;;;;;60.53;29.50;;;;;;;;;;5067888;28;20031;-76
2022/03/25 00:56:30;;;;;;;46.75;28.30;;;;;;;;;;5059014;28;20152;-76
2022/03/25 00:58:56;;;;;;;47.00;25.30;;;;;;;;;;5070197;28;20021;-75
2022/03/25 01:01:22;;;;;;;85.78;50.88;;;;;;;;;;5069992;28;20032;-77
2022/03/25 01:03:48;;;;;;;83.97;53.78;;;;;;;;;;5070798;28;20030;-76
2022/03/25 01:06:15;;;;;;;86.38;53.92;;;;;;;;;;5070402;28;20402;-75
2022/03/25 01:08:41;;;;;;;77.15;51.40;;;;;;;;;;5070665;28;20027;-76
2022/03/25 01:11:07;;;;;;;86.88;53.35;;;;;;;;;;5073267;28;20027;-76
2022/03/25 01:13:33;;;;;;;85.47;52.70;;;;;;;;;;5075242;28;20484;-76
2022/03/25 01:16:06;;;;;;;79.90;50.00;;;;;;;;;;5074436;28;20029;-77
2022/03/25 01:18:32;;;;;;;97.72;55.63;;;;;;;;;;5073819;28;20059;-76
2022/03/25 01:20:59;;;;;;;81.65;53.35;;;;;;;;;;5074871;28;20052;-76
2022/03/25 01:23:25;;;;;;;88.68;53.38;;;;;;;;;;5075213;28;20101;-76
2022/03/25 01:25:51;;;;;;;88.20;50.30;;;;;;;;;;5073764;28;20029;-77
2022/03/25 01:28:18;;;;;;;76.18;44.03;;;;;;;;;;5074976;28;20016;-78
2022/03/25 01:30:45;;;;;;;69.47;44.58;;;;;;;;;;5073531;28;20111;-77
2022/03/25 01:33:11;;;;;;;56.00;38.53;;;;;;;;;;5073682;28;20075;-76
2022/03/25 01:35:37;;;;;;;90.47;57.00;;;;;;;;;;5074448;28;20349;-76
2022/03/25 01:38:04;;;;;;;92.35;53.97;;;;;;;;;;5074603;28;20040;-76
2022/03/25 01:40:30;;;;;;;65.80;43.65;;;;;;;;;;5074206;28;20062;-76
2022/03/25 01:42:57;;;;;;;69.05;45.13;;;;;;;;;;5073447;28;20082;-76
2022/03/25 01:45:32;;;;;;;65.55;44.08;;;;;;;;;;5073093;28;20040;-77
2022/03/25 01:47:58;;;;;;;73.00;43.00;;;;;;;;;;5073101;28;20032;-76
2022/03/25 01:50:24;;;;;;;62.42;42.72;;;;;;;;;;5073062;28;20021;-76
2022/03/25 01:52:51;;;;;;;48.08;31.30;;;;;;;;;;5074542;28;20027;-76
2022/03/25 01:55:20;;;;;;;54.15;36.85;;;;;;;;;;5072736;28;20475;-77
2022/03/25 01:57:46;;;;;;;69.95;41.33;;;;;;;;;;5073200;28;20020;-76
2022/03/25 02:00:15;;;;;;;51.50;30.48;;;;;;;;;;5074159;28;20028;-77
2022/03/25 02:02:41;;;;;;;66.93;42.85;;;;;;;;;;5073970;28;20028;-76
2022/03/25 02:05:07;;;;;;;57.05;39.03;;;;;;;;;;5073004;28;20522;-76
2022/03/25 02:07:33;;;;;;;42.08;27.90;;;;;;;;;;5072741;28;20043;-76
2022/03/25 02:10:00;;;;;;;59.75;37.08;;;;;;;;;;5073002;28;20016;-76
2022/03/25 02:12:26;;;;;;;39.03;26.92;;;;;;;;;;5072789;28;20779;-76
2022/03/25 02:14:52;;;;;;;38.80;22.40;;;;;;;;;;5072582;28;20438;-76
2022/03/25 02:17:18;;;;;;;24.38;17.42;;;;;;;;;;5072950;28;20444;-77
2022/03/25 02:19:44;;;;;;;38.30;24.95;;;;;;;;;;5071052;28;20063;-77
2022/03/25 02:22:10;;;;;;;46.20;23.25;;;;;;;;;;5070786;28;20138;-76
2022/03/25 02:24:36;;;;;;;36.33;21.15;;;;;;;;;;5070143;28;20052;-76
2022/03/25 02:27:03;;;;;;;34.60;22.25;;;;;;;;;;5071873;28;20028;-76
2022/03/25 02:29:29;;;;;;;33.88;19.58;;;;;;;;;;5070995;28;20162;-78
2022/03/25 02:31:55;;;;;;;29.33;19.08;;;;;;;;;;5069691;28;20024;-77
2022/03/25 02:34:21;;;;;;;44.83;23.30;;;;;;;;;;5072101;28;20096;-76
2022/03/25 02:36:47;;;;;;;32.15;18.45;;;;;;;;;;5072427;28;20027;-76
2022/03/25 02:39:14;;;;;;;25.85;18.20;;;;;;;;;;5073756;28;20028;-76
2022/03/25 02:41:41;;;;;;;31.63;19.60;;;;;;;;;;5073045;28;20488;-77
2022/03/25 02:44:08;;;;;;;38.25;19.13;;;;;;;;;;5072387;28;20019;-77
2022/03/25 02:46:35;;;;;;;34.90;19.45;;;;;;;;;;5071426;28;20033;-76
2022/03/25 02:49:01;;;;;;;28.33;18.75;;;;;;;;;;5071988;28;20161;-75
2022/03/25 02:51:27;;;;;;;27.60;16.30;;;;;;;;;;5073572;28;20032;-76
2022/03/25 02:53:53;;;;;;;26.40;15.45;;;;;;;;;;5072230;28;20472;-76
2022/03/25 02:56:19;;;;;;;33.65;18.95;;;;;;;;;;5073018;28;20025;-76
2022/03/25 02:58:45;;;;;;;25.50;17.25;;;;;;;;;;5071307;28;20032;-75
2022/03/25 03:01:13;;;;;;;31.75;18.67;;;;;;;;;;5071224;28;20020;-76
2022/03/25 03:03:40;;;;;;;30.58;20.67;;;;;;;;;;5073176;28;20066;-75
2022/03/25 03:06:06;;;;;;;36.55;21.58;;;;;;;;;;5073156;28;20032;-76
2022/03/25 03:08:34;;;;;;;35.00;19.33;;;;;;;;;;5071813;28;20117;-75
2022/03/25 03:11:00;;;;;;;28.63;18.77;;;;;;;;;;5071819;28;20382;-76
2022/03/25 03:13:26;;;;;;;31.20;18.98;;;;;;;;;;5071318;28;20534;-76
2022/03/25 03:15:52;;;;;;;31.08;18.25;;;;;;;;;;5070562;28;20537;-76
2022/03/25 03:18:20;;;;;;;28.27;17.17;;;;;;;;;;5071411;28;20484;-77
2022/03/25 03:20:46;;;;;;;28.80;18.25;;;;;;;;;;5072621;28;20479;-76
2022/03/25 03:23:13;;;;;;;27.90;17.35;;;;;;;;;;5071395;28;20043;-76
2022/03/25 03:25:39;;;;;;;30.95;18.52;;;;;;;;;;5072901;28;20024;-76
2022/03/25 03:28:07;;;;;;;29.58;17.73;;;;;;;;;;5071050;28;20029;-76
2022/03/25 03:30:33;;;;;;;33.55;19.05;;;;;;;;;;5072457;28;20020;-76
2022/03/25 03:33:04;;;;;;;29.73;19.95;;;;;;;;;;5071467;28;20067;-76
2022/03/25 03:35:30;;;;;;;30.63;16.23;;;;;;;;;;5072730;28;20028;-76
2022/03/25 03:37:56;;;;;;;28.42;19.08;;;;;;;;;;5072939;28;20025;-76
2022/03/25 03:40:22;;;;;;;25.67;15.82;;;;;;;;;;5071926;28;20032;-77
2022/03/25 03:42:48;;;;;;;33.10;17.15;;;;;;;;;;5071850;28;20570;-76
2022/03/25 03:45:16;;;;;;;30.38;19.10;;;;;;;;;;5072158;28;20067;-76
2022/03/25 03:47:42;;;;;;;22.40;15.88;;;;;;;;;;5070653;28;20175;-77
2022/03/25 03:50:11;;;;;;;23.02;15.70;;;;;;;;;;5071022;28;20028;-77
2022/03/25 03:52:37;;;;;;;27.20;16.67;;;;;;;;;;5070819;28;20027;-75
2022/03/25 03:55:04;;;;;;;26.67;17.48;;;;;;;;;;5070995;28;20031;-76
2022/03/25 03:57:30;;;;;;;30.67;18.05;;;;;;;;;;5070292;28;20479;-76
2022/03/25 03:59:57;;;;;;;31.17;19.80;;;;;;;;;;5072134;28;20023;-76
2022/03/25 04:02:23;;;;;;;29.52;17.95;;;;;;;;;;5072043;28;20100;-75
2022/03/25 04:04:49;;;;;;;27.75;18.05;;;;;;;;;;5070829;28;20028;-76
2022/03/25 04:07:15;;;;;;;31.45;16.55;;;;;;;;;;5072167;28;20025;-76
2022/03/25 04:09:41;;;;;;;30.10;17.45;;;;;;;;;;5071714;28;20020;-76
2022/03/25 04:12:12;;;;;;;25.90;17.92;;;;;;;;;;5071210;28;20392;-77
2022/03/25 04:14:39;;;;;;;34.45;19.55;;;;;;;;;;5070725;28;20111;-76
2022/03/25 04:17:05;;;;;;;33.28;19.15;;;;;;;;;;5071209;28;20495;-77
2022/03/25 04:19:31;;;;;;;27.73;17.67;;;;;;;;;;5070508;28;20122;-76
2022/03/25 04:21:57;;;;;;;34.17;17.77;;;;;;;;;;5071259;28;20459;-76
2022/03/25 04:24:23;;;;;;;29.33;17.33;;;;;;;;;;5070616;28;20021;-76
2022/03/25 04:26:49;;;;;;;35.28;18.77;;;;;;;;;;5070588;28;20040;-76
2022/03/25 04:29:15;;;;;;;31.77;18.65;;;;;;;;;;5070110;28;20055;-76
2022/03/25 04:31:41;;;;;;;31.13;21.92;;;;;;;;;;5071787;28;20033;-76
2022/03/25 04:34:07;;;;;;;38.13;22.00;;;;;;;;;;5070462;28;20024;-75
2022/03/25 04:36:34;;;;;;;40.38;21.40;;;;;;;;;;5070115;28;20397;-76
2022/03/25 04:39:01;;;;;;;35.13;22.83;;;;;;;;;;5070578;28;20027;-76
2022/03/25 04:41:27;;;;;;;48.10;26.95;;;;;;;;;;5071243;28;20066;-76
2022/03/25 04:43:53;;;;;;;41.35;26.15;;;;;;;;;;5071699;28;20506;-76
2022/03/25 04:46:19;;;;;;;44.50;22.63;;;;;;;;;;5073806;28;20487;-76
2022/03/25 04:48:45;;;;;;;52.97;29.98;;;;;;;;;;5073603;28;20024;-77
2022/03/25 04:51:11;;;;;;;58.92;32.75;;;;;;;;;;5074425;28;20024;-76
2022/03/25 04:53:38;;;;;;;60.47;30.90;;;;;;;;;;5074201;28;20128;-76
2022/03/25 04:56:04;;;;;;;54.80;31.00;;;;;;;;;;5074491;28;20020;-76
2022/03/25 04:58:30;;;;;;;46.75;26.73;;;;;;;;;;5075679;28;20020;-75
2022/03/25 05:00:56;;;;;;;39.92;26.30;;;;;;;;;;5073415;28;20021;-75
2022/03/25 05:03:23;;;;;;;44.78;26.17;;;;;;;;;;5074712;28;20020;-75
2022/03/25 05:05:49;;;;;;;69.93;32.95;;;;;;;;;;5071889;28;20041;-77
2022/03/25 05:08:16;;;;;;;75.50;39.08;;;;;;;;;;5072604;28;20020;-75
2022/03/25 05:10:42;;;;;;;59.42;29.65;;;;;;;;;;5075298;28;20024;-77
2022/03/25 05:13:11;;;;;;;68.07;34.70;;;;;;;;;;5053909;28;20041;-76
2022/03/25 05:15:37;;;;;;;53.22;30.60;;;;;;;;;;5067288;28;20025;-76
2022/03/25 05:18:04;;;;;;;59.70;32.38;;;;;;;;;;5073670;28;20020;-76
2022/03/25 05:20:30;;;;;;;51.97;32.33;;;;;;;;;;5073424;28;20031;-77
2022/03/25 05:22:56;;;;;;;53.83;31.67;;;;;;;;;;5073564;28;20016;-76
2022/03/25 05:25:22;;;;;;;48.28;29.08;;;;;;;;;;5075210;28;20029;-76
2022/03/25 05:27:50;;;;;;;53.63;28.70;;;;;;;;;;5074753;28;20024;-76
2022/03/25 05:30:18;;;;;;;49.28;22.75;;;;;;;;;;5074919;28;20061;-76
2022/03/25 05:32:44;;;;;;;40.30;22.27;;;;;;;;;;5071637;28;20077;-76
2022/03/25 05:35:11;;;;;;;40.95;25.60;;;;;;;;;;5072252;28;20029;-76
2022/03/25 05:37:37;;;;;;;48.90;27.83;;;;;;;;;;5073951;28;20028;-76
2022/03/25 05:40:04;;;;;;;50.35;30.70;;;;;;;;;;5072188;28;20545;-77
2022/03/25 05:42:30;;;;;;;48.60;28.98;;;;;;;;;;5072083;28;20068;-76
2022/03/25 05:44:56;;;;;;;35.33;25.05;;;;;;;;;;5071960;28;20013;-76
2022/03/25 05:47:22;;;;;;;43.05;23.17;;;;;;;;;;5073639;28;20479;-76
2022/03/25 05:49:48;;;;;;;49.30;22.17;;;;;;;;;;5072515;28;20329;-76
2022/03/25 05:52:15;;;;;;;38.05;23.10;;;;;;;;;;5074606;28;20379;-76
2022/03/25 05:54:41;;;;;;;51.38;32.83;;;;;;;;;;5074112;28;20029;-76
2022/03/25 05:57:07;;;;;;;66.35;34.88;;;;;;;;;;5074045;28;20476;-76
2022/03/25 05:59:33;;;;;;;65.35;40.38;;;;;;;;;;5072863;28;20032;-76
2022/03/25 06:01:59;;;;;;;96.55;52.92;;;;;;;;;;5074004;28;20058;-76
2022/03/25 06:04:25;;;;;;;107.88;61.88;;;;;;;;;;5073190;28;20079;-77
2022/03/25 06:06:52;;;;;;;89.10;47.35;;;;;;;;;;5072498;28;20032;-76
2022/03/25 06:09:18;;;;;;;43.38;27.73;;;;;;;;;;5071909;28;20103;-76
2022/03/25 06:11:44;;;;;;;54.95;28.13;;;;;;;;;;5073151;28;20024;-75
2022/03/25 06:14:10;;;;;;;48.45;29.40;;;;;;;;;;5071987;28;20041;-78
2022/03/25 06:16:36;;;;;;;45.05;26.08;;;;;;;;;;5073975;28;20447;-76
2022/03/25 06:19:02;;;;;;;41.45;27.17;;;;;;;;;;5073355;28;20380;-76
2022/03/25 06:21:28;;;;;;;36.88;21.63;;;;;;;;;;5073650;28;20111;-76
2022/03/25 06:23:54;;;;;;;40.10;22.77;;;;;;;;;;5073900;28;20078;-75
2022/03/25 06:26:21;;;;;;;68.72;26.25;;;;;;;;;;5072459;28;20123;-76
2022/03/25 06:28:47;;;;;;;38.90;22.10;;;;;;;;;;5073879;28;20127;-77
2022/03/25 06:31:13;;;;;;;40.05;24.85;;;;;;;;;;5068329;28;20031;-77
2022/03/25 06:33:41;;;;;;;45.03;24.15;;;;;;;;;;5071761;28;20108;-76
2022/03/25 06:36:13;;;;;;;37.50;20.67;;;;;;;;;;5071746;28;20510;-75
2022/03/25 06:38:40;;;;;;;33.92;17.30;;;;;;;;;;5071212;28;20063;-76
2022/03/25 06:41:06;;;;;;;33.85;16.30;;;;;;;;;;5073611;28;20025;-77
2022/03/25 06:43:33;;;;;;;31.98;18.05;;;;;;;;;;5067693;28;20024;-75
2022/03/25 06:45:59;;;;;;;23.73;15.27;;;;;;;;;;5069838;28;20060;-75
2022/03/25 06:48:25;;;;;;;33.63;19.10;;;;;;;;;;5069930;28;20025;-77
2022/03/25 06:50:52;;;;;;;36.55;15.27;;;;;;;;;;5071580;28;20017;-76
2022/03/25 06:53:18;;;;;;;36.90;22.40;;;;;;;;;;5072197;28;20025;-76
2022/03/25 06:55:44;;;;;;;31.27;17.10;;;;;;;;;;5069778;28;20025;-76
2022/03/25 06:58:11;;;;;;;28.83;17.85;;;;;;;;;;5062012;28;20025;-75
2022/03/25 07:00:38;;;;;;;44.33;21.27;;;;;;;;;;5057131;28;20028;-76
2022/03/25 07:03:04;;;;;;;21.77;8.90;;;;;;;;;;5071490;28;20040;-74
2022/03/25 07:05:31;;;;;;;20.58;12.10;;;;;;;;;;5070464;28;20115;-75
2022/03/25 07:07:58;;;;;;;20.27;11.90;;;;;;;;;;5071673;28;20024;-76
2022/03/25 07:10:26;;;;;;;29.65;14.68;;;;;;;;;;5068970;28;20034;-75
2022/03/25 07:12:53;;;;;;;25.77;13.35;;;;;;;;;;5071848;28;20059;-76
2022/03/25 07:15:20;;;;;;;24.17;15.40;;;;;;;;;;5072396;28;20029;-76
2022/03/25 07:17:46;;;;;;;29.23;15.65;;;;;;;;;;5071847;28;20021;-75
2022/03/25 07:20:15;;;;;;;22.70;12.43;;;;;;;;;;5072328;28;20051;-76
2022/03/25 07:22:42;;;;;;;31.00;16.13;;;;;;;;;;5071068;28;20365;-76
2022/03/25 07:25:08;;;;;;;29.60;16.25;;;;;;;;;;5072090;28;20033;-75
2022/03/25 07:27:34;;;;;;;22.60;11.30;;;;;;;;;;5069284;28;20013;-76
2022/03/25 07:30:00;;;;;;;21.92;13.02;;;;;;;;;;5070501;28;20016;-76
2022/03/25 07:32:27;;;;;;;29.52;15.70;;;;;;;;;;5071821;28;20016;-76
2022/03/25 07:34:53;;;;;;;20.27;10.32;;;;;;;;;;5070394;28;20013;-76
2022/03/25 07:37:19;;;;;;;23.73;13.77;;;333.20;1177.60;;;;;;5070278;28;20016;-76
2022/03/25 07:39:45;;;;;;;15.30;10.02;;;;;;;;;;5071227;28;20544;-76
2022/03/25 07:42:11;;;;;;;19.08;10.32;;;;;;;;;;5073234;28;20056;-75
2022/03/25 07:44:39;;;;;;;20.00;9.77;;;;;;;;;;5069055;28;20052;-75
2022/03/25 07:47:05;;;;;;;19.90;10.90;;;;;;;;;;5071407;28;20029;-75
2022/03/25 07:49:38;;;;;;;15.15;9.15;;;;;;;;;;5069973;28;20097;-75
2022/03/25 07:52:05;;;;;;;21.15;8.90;;;;;;;;;;5071029;28;20055;-75
2022/03/25 07:54:31;;;;;;;14.82;5.70;;;;;;;;;;5070902;28;20017;-76
2022/03/25 07:56:58;;;;;;;17.27;10.45;;;333.70;1100.80;;;;;;5069614;28;20031;-77
2022/03/25 07:59:28;;;;;;;20.52;10.27;;;333.70;1100.80;;;;;;5071038;28;20016;-76
2022/03/25 08:01:55;;;;;;;21.98;8.07;;;333.70;1100.80;;;;;;5067745;28;20029;-77
2022/03/25 08:04:24;;;;;;;20.17;6.70;;;;;;;;;;5070686;28;20024;-75
2022/03/25 08:06:50;;;;;;;9.65;5.47;;;;;;;;;;5066538;28;20043;-79
2022/03/25 08:09:16;;;;;;;9.48;5.90;;;;;;;;;;5072369;28;20103;-78
2022/03/25 08:11:45;;;;;;;11.77;5.88;;;;;;;;;;5070176;28;20024;-79
2022/03/25 08:14:12;;;;;;;14.30;7.45;;;;;;;;;;5072033;28;20048;-79
2022/03/25 08:16:38;;;;;;;9.75;5.63;;;;;;;;;;5070872;28;20096;-79
2022/03/25 08:19:05;;;;;;;9.98;3.72;;;;;;;;;;5069874;28;20103;-80
2022/03/25 08:21:31;;;;;;;10.23;5.45;;;;;;;;;;5070734;28;20484;-80
2022/03/25 08:29:26;;;;;;;11.98;5.05;;;;;;;;;;5071692;28;20048;-79
2022/03/25 08:31:52;;;;;;;5.60;4.07;;;;;;;;;;5069046;28;20024;-79
2022/03/25 08:34:18;;;;;;;9.25;4.50;;;;;;;;;;5066143;28;20036;-78
2022/03/25 08:36:46;;;;;;;7.03;4.10;;;;;;;;;;5065976;28;20417;-78
2022/03/25 08:39:12;;;;;;;12.73;6.38;;;;;;;;;;5069924;28;20098;-79
2022/03/25 08:41:38;;;;;;;12.90;6.68;;;;;;;;;;5071289;28;20062;-78
2022/03/25 08:44:05;;;;;;;14.85;6.78;;;;;;;;;;5070322;28;20086;-79
2022/03/25 08:46:32;;;;;;;16.60;6.45;;;;;;;;;;5070371;28;20043;-78
2022/03/25 08:48:58;;;;;;;12.38;6.78;;;;;;;;;;5070280;28;20032;-79
2022/03/25 08:51:24;;;;;;;10.77;6.13;;;;;;;;;;5069788;28;20073;-78
2022/03/25 08:53:50;;;;;;;17.15;5.45;;;;;;;;;;5069688;28;20020;-78
2022/03/25 08:56:16;;;;;;;8.40;4.15;;;;;;;;;;5069994;28;20017;-78
2022/03/25 08:58:43;;;;;;;11.80;5.78;;;;;;;;;;5069079;28;20025;-79
2022/03/25 09:01:09;;;;;;;9.98;5.72;;;;;;;;;;5049169;28;20033;-79
2022/03/25 09:03:35;;;;;;;9.68;4.72;;;;;;;;;;5069291;28;20031;-77
2022/03/25 09:06:01;;;;;;;16.17;6.72;;;;;;;;;;5065170;28;20111;-76
2022/03/25 09:08:27;;;;;;;8.13;5.05;;;;;;;;;;5068807;28;20024;-77
2022/03/25 09:10:53;;;;;;;15.52;5.03;;;;;;;;;;5064750;28;20040;-75
2022/03/25 09:13:20;;;;;;;8.82;3.53;;;;;;;;;;5068294;28;20059;-78
2022/03/25 09:15:46;;;;;;;11.23;6.28;;;;;;;;;;5070593;28;20482;-78
2022/03/25 09:18:12;;;;;;;9.77;4.88;;;;;;;;;;5070539;28;20032;-77
2022/03/25 09:20:39;;;;;;;10.73;5.72;;;;;;;;;;5071079;28;20021;-77
2022/03/25 09:23:05;;;;;;;15.32;5.50;;;;;;;;;;5069586;28;20024;-75
2022/03/25 09:25:32;;;;;;;8.07;5.50;;;;;;;;;;5058819;28;20600;-78
2022/03/25 09:27:58;;;;;;;12.70;5.53;;;;;;;;;;5069425;28;20036;-77
2022/03/25 09:30:24;;;;;;;9.38;4.40;;;;;;;;;;5069524;28;20419;-77
2022/03/25 09:32:50;;;;;;;9.57;5.03;;;;;;;;;;5074438;28;20024;-78
2022/03/25 09:35:16;;;;;;;10.45;5.20;;;;;;;;;;5074707;28;20024;-80
2022/03/25 09:37:46;;;;;;;11.20;6.35;;;;;;;;;;5072294;28;20387;-77
2022/03/25 09:40:14;;;;;;;12.75;7.40;;;;;;;;;;5070499;28;20058;-78
2022/03/25 09:42:40;;;;;;;14.10;7.05;;;;;;;;;;5070098;28;20108;-78
2022/03/25 09:45:07;;;;;;;10.25;4.60;;;;;;;;;;5073065;28;20072;-77
2022/03/25 09:47:33;;;;;;;14.95;5.82;;;;;;;;;;5071820;28;20078;-76
2022/03/25 09:50:00;;;;;;;16.58;9.15;;;;;;;;;;5073413;28;20027;-77
2022/03/25 09:52:28;;;;;;;8.93;6.00;;;;;;;;;;5073017;28;20016;-78
2022/03/25 09:54:54;;;;;;;15.63;6.72;;;;;;;;;;5071037;28;20024;-76
2022/03/25 09:57:20;;;;;;;14.18;7.63;;;;;;;;;;5072229;28;20063;-77
2022/03/25 09:59:46;;;;;;;18.10;7.65;;;;;;;;;;5071863;28;20036;-76
2022/03/25 10:02:12;;;;;;;16.25;6.60;;;;;;;;;;5071610;28;20056;-75
2022/03/25 10:04:43;;;;;;;10.25;5.18;;;;;;;;;;5074204;28;20025;-76
2022/03/25 10:07:16;;;;;;;9.48;4.72;;;;;;;;;;5073514;28;20067;-78
2022/03/25 10:09:42;;;;;;;9.33;5.03;;;;;;;;;;5073152;28;20024;-76
2022/03/25 10:12:34;;;;;;;16.58;7.45;;;;;;;;;;5073691;28;20120;-76
2022/03/25 10:15:10;;;;;;;13.52;8.07;;;;;;;;;;5065948;28;20040;-75
2022/03/25 10:17:49;;;;;;;18.38;9.88;;;;;;;;;;5073002;28;20086;-77
2022/03/25 10:20:16;;;;;;;13.45;6.70;;;409.90;870.40;;;;;;5072192;28;20028;-79
2022/03/25 10:23:03;;;;;;;11.63;7.95;;;409.80;870.40;;;;;;5073680;28;20025;-77
2022/03/25 10:25:33;;;;;;;9.38;6.10;;;;;;;;;;5074034;28;20047;-76
2022/03/25 10:28:00;;;;;;;10.55;5.85;;;;;;;;;;5071601;28;20471;-75
2022/03/25 10:30:39;;;;;;;8.68;5.38;;;;;;;;;;5072090;28;20044;-76
2022/03/25 10:33:12;;;;;;;13.70;5.38;;;;;;;;;;5071744;28;20071;-75
2022/03/25 10:35:54;;;;;;;9.82;4.65;;;;;;;;;;5065362;28;20491;-75
2022/03/25 10:38:21;;;;;;;17.88;7.53;;;;;;;;;;5066787;28;20024;-74
2022/03/25 10:40:50;;;;;;;9.38;5.93;;;;;;;;;;5073844;28;20016;-75
2022/03/25 10:43:17;;;;;;;14.43;6.43;;;;;;;;;;5073019;28;20031;-75
2022/03/25 10:45:43;;;;;;;23.65;4.72;;;;;;;;;;5072053;28;20036;-74
2022/03/25 10:48:12;;;;;;;16.50;6.18;;;;;;;;;;5072171;28;20020;-75
2022/03/25 10:50:56;;;;;;;15.15;5.55;;;;;;;;;;5071895;28;20029;-75
2022/03/25 10:53:24;;;;;;;14.27;7.88;;;435.50;844.80;;;;;;5073062;28;20029;-75
2022/03/25 10:55:54;;;;;;;22.48;8.52;;;435.60;819.20;;;;;;5071670;28;20031;-75
2022/03/25 10:58:20;;;;;;;8.30;4.65;;;;;;;;;;5072784;28;20039;-76
2022/03/25 11:00:47;;;;;;;9.90;4.65;;;;;;;;;;5072375;28;20028;-75
2022/03/25 11:03:14;;;;;;;11.15;4.72;;;410.40;844.80;;;;;;5071915;28;20028;-75
2022/03/25 11:05:41;;;;;;;12.40;6.65;;;410.50;819.20;;;;;;5073287;28;20109;-75
2022/03/25 11:08:08;;;;;;;11.23;5.82;;;435.60;819.20;;;;;;5071748;28;20028;-76
2022/03/25 11:10:34;;;;;;;8.57;5.20;;;;;;;;;;5071592;28;20024;-75
2022/03/25 11:13:03;;;;;;;13.20;7.15;;;460.90;844.80;;;;;;5072815;28;20049;-76
2022/03/25 11:15:30;;;;;;;11.50;5.25;;;;;;;;;;5071714;28;20063;-76
2022/03/25 11:17:57;;;;;;;11.20;5.50;;;;;;;;;;5072830;28;20471;-76
2022/03/25 11:20:27;;;;;;;8.98;5.63;;;435.90;819.20;;;;;;5071563;28;20066;-76
2022/03/25 11:23:02;;;;;;;12.43;7.55;;;436.00;793.60;;;;;;5071677;28;20024;-75
2022/03/25 11:25:28;;;;;;;11.15;6.05;;;;;;;;;;5070955;28;20036;-76
2022/03/25 11:28:19;;;;;;;17.40;6.20;;;461.30;819.20;;;;;;5072949;28;20103;-75
2022/03/25 11:30:46;;;;;;;14.35;6.43;;;;;;;;;;5071255;28;20025;-75
2022/03/25 11:33:11;;;;;;;13.60;7.47;;;436.10;844.80;;;;;;5071226;28;20027;-75
2022/03/25 11:35:40;;;;;;;20.95;9.18;;;460.90;844.80;;;;;;5071132;28;20028;-76
2022/03/25 11:38:12;;;;;;;9.13;6.18;;;;;;;;;;5071069;28;20169;-75
2022/03/25 11:41:18;;;;;;;10.45;7.28;;;460.90;844.80;;;;;;5070688;28;20072;-76
2022/03/25 11:43:44;;;;;;;9.82;6.85;;;460.80;844.80;;;;;;5072193;28;20025;-76
2022/03/25 11:46:10;;;;;;;18.50;10.98;;;435.90;844.80;;;;;;5072000;28;20166;-76
2022/03/25 11:48:38;;;;;;;13.32;7.30;;;461.30;870.40;;;;;;5070812;28;20111;-76
2022/03/25 11:51:29;;;;;;;18.50;10.63;;;435.90;870.40;;;;;;5070730;28;20391;-76
2022/03/25 11:53:56;;;;;;;18.33;9.65;;;461.10;870.40;;;;;;5072110;28;20116;-77
2022/03/25 11:56:22;;;;;;;15.05;8.45;;;460.90;870.40;;;;;;5070541;28;20021;-76
2022/03/25 11:58:59;;;;;;;15.27;8.20;;;460.80;870.40;;;;;;5072113;28;20418;-76
2022/03/25 12:01:25;;;;;;;12.88;7.43;;;435.60;870.40;;;;;;5070850;28;20064;-75
2022/03/25 12:03:56;;;;;;;10.48;6.03;;;435.90;870.40;;;;;;5070738;28;20063;-75
2022/03/25 12:06:29;;;;;;;16.58;10.20;;;435.80;870.40;;;;;;5070584;28;20090;-75
2022/03/25 12:09:01;;;;;;;17.60;7.63;;;461.10;870.40;;;;;;5070479;28;20425;-76
2022/03/25 12:11:53;;;;;;;15.10;8.38;;;461.20;870.40;;;;;;5070385;28;20025;-76
2022/03/25 12:14:30;;;;;;;15.95;8.63;;;461.20;870.40;;;;;;5072075;28;20131;-77
2022/03/25 12:17:02;;;;;;;10.57;7.30;;;461.50;844.80;;;;;;5071336;28;20043;-76
2022/03/25 12:19:30;;;;;;;17.27;10.43;;;461.10;870.40;;;;;;5070289;28;20028;-76
2022/03/25 12:21:56;;;;;;;11.32;8.00;;;460.90;870.40;;;;;;5070372;28;20031;-76
2022/03/25 12:24:22;;;;;;;11.13;6.72;;;436.00;870.40;;;;;;5071866;28;20025;-75
2022/03/25 12:27:02;;;;;;;18.77;7.47;;;436.10;870.40;;;;;;5072399;28;20089;-75
2022/03/25 12:29:34;;;;;;;13.52;7.75;;;461.50;844.80;;;;;;5070765;28;20464;-75
2022/03/25 12:32:08;;;;;;;17.80;11.77;;;461.40;844.80;;;;;;5072401;28;20021;-75
2022/03/25 12:34:59;;;;;;;14.43;9.30;;;461.60;844.80;;;;;;5072040;28;20179;-75
2022/03/25 12:37:30;;;;;;;19.15;12.85;;;486.70;844.80;;;;;;5070928;28;20104;-78
2022/03/25 12:40:07;;;;;;;9.75;6.15;;;486.70;844.80;;;;;;5070404;28;20101;-78
2022/03/25 12:42:33;;;;;;;15.10;9.88;;;461.40;870.40;;;;;;5070364;28;20032;-77
2022/03/25 12:44:59;;;;;;;12.38;9.02;;;461.60;870.40;;;;;;5070850;28;20025;-77
2022/03/25 12:47:36;;;;;;;18.20;8.48;;;487.00;819.20;;;;;;5070823;28;20028;-77
2022/03/25 12:50:04;;;;;;;19.92;10.25;;;487.20;819.20;;;;;;5070766;28;20025;-77
2022/03/25 12:52:30;;;;;;;16.40;7.68;;;486.70;844.80;;;;;;5070334;28;20021;-78
2022/03/25 12:55:06;;;;;;;16.00;9.07;;;461.10;870.40;;;;;;5070003;28;20036;-79
2022/03/25 12:57:36;;;;;;;12.80;8.75;;;486.60;844.80;;;;;;5067947;28;20043;-79
2022/03/25 13:00:06;;;;;;;11.27;7.22;;;461.30;870.40;;;;;;5070442;28;20025;-80
2022/03/25 13:02:37;;;;;;;10.98;6.35;;;461.60;870.40;;;;;;5070757;28;20025;-79
2022/03/25 13:05:17;;;;;;;12.23;7.70;;;461.50;896.00;;;;;;5069960;28;20028;-77
2022/03/25 13:07:58;;;;;;;17.50;7.70;;;461.00;896.00;;;;;;5074329;28;20701;-77
2022/03/25 13:10:24;;;;;;;17.23;8.80;;;461.30;870.40;;;;;;5074876;28;20463;-77
2022/03/25 13:12:53;;;;;;;14.40;8.90;;;486.40;870.40;;;;;;5074113;28;20041;-77
2022/03/25 13:15:25;;;;;;;13.20;9.40;;;486.40;870.40;;;;;;5073083;28;20042;-76
2022/03/25 13:17:53;;;;;;;11.43;7.43;;;461.60;870.40;;;;;;5073188;28;20020;-76
2022/03/25 13:20:29;;;;;;;16.17;9.70;;;486.70;844.80;;;;;;5106685;28;20115;-76
2022/03/25 13:23:04;;;;;;;20.63;10.38;;;461.30;896.00;;;;;;5073160;28;20024;-77
2022/03/25 13:25:29;;;;;;;16.17;8.27;;;486.50;870.40;;;;;;5072410;28;20056;-76
2022/03/25 13:27:57;;;;;;;13.27;7.30;;;487.00;870.40;;;;;;5078714;28;20036;-76
2022/03/25 13:30:23;;;;;;;22.20;5.88;;;486.40;870.40;;;;;;5074807;28;20083;-76
2022/03/25 13:33:15;;;;;;;12.10;7.43;;;461.30;896.00;;;;;;5075482;28;20473;-80
2022/03/25 13:35:44;;;;;;;18.33;10.35;;;461.30;896.00;;;;;;5084909;28;20033;-79
2022/03/25 13:38:13;;;;;;;16.08;9.48;;;461.60;896.00;;;;;;5084715;28;20077;-78
2022/03/25 13:40:45;;;;;;;15.90;7.50;;;486.70;870.40;;;;;;5073313;28;20024;-80
2022/03/25 13:43:13;;;;;;;14.52;9.68;;;461.20;896.00;;;;;;5074529;28;20024;-77
2022/03/25 13:45:56;;;;;;;14.77;9.05;;;461.40;896.00;;;;;;5074060;28;20115;-76
2022/03/25 13:48:22;;;;;;;17.30;10.30;;;461.20;896.00;;;;;;5070315;28;20044;-78
2022/03/25 13:50:50;;;;;;;22.08;10.77;;;461.60;896.00;;;;;;5071582;28;20024;-76
2022/03/25 13:53:39;;;;;;;20.83;11.85;;;486.40;896.00;;;;;;5069970;28;20035;-78
2022/03/25 13:56:19;;;;;;;10.98;7.53;;;487.00;870.40;;;;;;5070678;28;20472;-77
2022/03/25 13:58:51;;;;;;;18.23;9.13;;;461.50;896.00;;;;;;5072131;28;20115;-78
2022/03/25 14:01:49;;;;;;;11.65;9.02;;;461.50;896.00;;;;;;5072534;28;20539;-79